Albion, NE

5:31 PM CDT on May 27, 2015 (GMT -0500)
Albion Municipal | | Change Station
CLOSE
Current Station
Airport
Location: Albion,
Elevation: 1804 ft
Nearby Weather Stations

Elev 1804 ft 41.73 °N, 98.06 °W | Updated 16 minutes ago

Partly Cloudy
Partly Cloudy
77 °F
Feels Like 77 °F
N
14
Wind Variable Wind from South

Today
High -- | Low -- °F
--% Chance of Precip.
Yesterday
High -- | Low -- °F
Precip. -- in
6:02 AM 8:56 PM
Waxing Gibbous, 70% visible
Pressure 30.03 in
Visibility 10.0 miles
Clouds Clear
Dew Point 42 °F
Humidity 29%
Rainfall 0.00 in
Snow Depth Not available.
UV 5 out of 12
Pollen 8.20 out of 12
Air Quality Not available.
Flu Activity No Activity
METAR KBVN 272215Z AUTO 17012KT 10SM CLR 25/06 A3003 RMK AO2 T02500057

More Conditions Fewer Conditions

Pressure 30.03 in
Visibility 10.0 miles
Clouds Clear
Dew Point 42 °F
Humidity 29%
Rainfall 0.00 in
Snow Depth Not available.
UV 5 out of 12
Pollen 8.20 out of 12
Air Quality Not available.
Flu Activity No Activity
METAR KBVN 272215Z AUTO 17012KT 10SM CLR 25/06 A3003 RMK AO2 T02500057

More Conditions Fewer Conditions

10-Day Weather Forecast

Almanac

Astronomy

May. 27, 2015 Rise Set
Actual Time
Civil Twilight
Nautical Twilight
Astronomical Twilight
Moon
Length of Visible Light
Length of Day
Tomorrow will be .
, % of the Moon is Illuminated

Today's Extremes

State Highs State Lows

Community

WunderPhotos

Upload Photos

1,824,813 photos uploaded!

WunderBlogs® & News

Nearby

Air Quality

  Air Quality AQ Index Pollutant
Not available.

Snow Depth

Station Depth Elevation

Earthquake Activity

City Distance Mag. Time & Date
Minimum magnitude displayed is 2.5.

Coastal Water Temperatures

Place Temperature

Stations

Nearby Weather Stations

Station Location Temp. Windchill Dew Point Humidity Wind Precip. Elev Updated Type